sensor_id;sensor_type;location;lat;lon;timestamp;temperature;humidity
69359;HTU21D;56520;49.066;8.660;2023-11-19T00:00:15;7.25;96.86
69359;HTU21D;56520;49.066;8.660;2023-11-19T00:02:41;7.26;96.97
69359;HTU21D;56520;49.066;8.660;2023-11-19T00:05:07;7.25;96.97
69359;HTU21D;56520;49.066;8.660;2023-11-19T00:07:39;7.26;97.01
69359;HTU21D;56520;49.066;8.660;2023-11-19T00:10:14;7.30;97.07
69359;HTU21D;56520;49.066;8.660;2023-11-19T00:12:45;7.32;97.11
69359;HTU21D;56520;49.066;8.660;2023-11-19T00:15:12;7.37;97.14
69359;HTU21D;56520;49.066;8.660;2023-11-19T00:17:41;7.39;97.20
69359;HTU21D;56520;49.066;8.660;2023-11-19T00:20:10;7.40;97.23
69359;HTU21D;56520;49.066;8.660;2023-11-19T00:22:35;7.41;97.26
69359;HTU21D;56520;49.066;8.660;2023-11-19T00:25:01;7.43;97.32
69359;HTU21D;56520;49.066;8.660;2023-11-19T00:27:27;7.46;97.48
69359;HTU21D;56520;49.066;8.660;2023-11-19T00:29:52;7.48;97.57
69359;HTU21D;56520;49.066;8.660;2023-11-19T00:32:18;7.49;97.71
69359;HTU21D;56520;49.066;8.660;2023-11-19T00:34:44;7.48;97.81
69359;HTU21D;56520;49.066;8.660;2023-11-19T00:37:10;7.48;97.94
69359;HTU21D;56520;49.066;8.660;2023-11-19T00:39:35;7.49;97.89
69359;HTU21D;56520;49.066;8.660;2023-11-19T00:42:01;7.54;98.06
69359;HTU21D;56520;49.066;8.660;2023-11-19T00:44:26;7.55;98.17
69359;HTU21D;56520;49.066;8.660;2023-11-19T00:46:51;7.56;98.31
69359;HTU21D;56520;49.066;8.660;2023-11-19T00:49:17;7.56;98.44
69359;HTU21D;56520;49.066;8.660;2023-11-19T00:51:42;7.57;98.58
69359;HTU21D;56520;49.066;8.660;2023-11-19T00:54:08;7.61;98.62
69359;HTU21D;56520;49.066;8.660;2023-11-19T00:56:33;7.67;98.75
69359;HTU21D;56520;49.066;8.660;2023-11-19T00:58:58;7.84;99.08
69359;HTU21D;56520;49.066;8.660;2023-11-19T01:01:25;8.11;99.55
69359;HTU21D;56520;49.066;8.660;2023-11-19T01:03:51;8.50;99.91
69359;HTU21D;56520;49.066;8.660;2023-11-19T01:06:29;9.04;100.36
69359;HTU21D;56520;49.066;8.660;2023-11-19T01:08:55;9.37;100.58
69359;HTU21D;56520;49.066;8.660;2023-11-19T01:11:25;9.56;100.76
69359;HTU21D;56520;49.066;8.660;2023-11-19T01:13:51;9.85;101.01
69359;HTU21D;56520;49.066;8.660;2023-11-19T01:16:18;9.96;100.80
69359;HTU21D;56520;49.066;8.660;2023-11-19T01:18:44;9.98;101.14
69359;HTU21D;56520;49.066;8.660;2023-11-19T01:21:10;10.08;101.08
69359;HTU21D;56520;49.066;8.660;2023-11-19T01:23:35;10.07;101.17
69359;HTU21D;56520;49.066;8.660;2023-11-19T01:26:02;10.05;101.25
69359;HTU21D;56520;49.066;8.660;2023-11-19T01:28:27;10.12;101.21
69359;HTU21D;56520;49.066;8.660;2023-11-19T01:30:53;10.20;101.21
69359;HTU21D;56520;49.066;8.660;2023-11-19T01:33:19;10.37;101.09
69359;HTU21D;56520;49.066;8.660;2023-11-19T01:35:44;10.38;100.94
69359;HTU21D;56520;49.066;8.660;2023-11-19T01:38:10;10.42;100.96
69359;HTU21D;56520;49.066;8.660;2023-11-19T01:40:36;10.42;100.90
69359;HTU21D;56520;49.066;8.660;2023-11-19T01:43:02;10.43;100.74
69359;HTU21D;56520;49.066;8.660;2023-11-19T01:45:29;10.51;100.45
69359;HTU21D;56520;49.066;8.660;2023-11-19T01:48:00;10.53;100.29
69359;HTU21D;56520;49.066;8.660;2023-11-19T01:50:26;10.62;99.88
69359;HTU21D;56520;49.066;8.660;2023-11-19T01:52:53;10.65;99.75
69359;HTU21D;56520;49.066;8.660;2023-11-19T01:55:20;10.78;99.09
69359;HTU21D;56520;49.066;8.660;2023-11-19T01:57:46;10.75;98.82
69359;HTU21D;56520;49.066;8.660;2023-11-19T02:00:12;10.68;98.91
69359;HTU21D;56520;49.066;8.660;2023-11-19T02:02:39;10.67;98.90
69359;HTU21D;56520;49.066;8.660;2023-11-19T02:05:06;10.73;98.57
69359;HTU21D;56520;49.066;8.660;2023-11-19T02:07:31;10.67;98.73
69359;HTU21D;56520;49.066;8.660;2023-11-19T02:09:57;10.65;98.80
69359;HTU21D;56520;49.066;8.660;2023-11-19T02:12:25;10.60;98.90
69359;HTU21D;56520;49.066;8.660;2023-11-19T02:14:53;10.64;98.96
69359;HTU21D;56520;49.066;8.660;2023-11-19T02:17:31;10.73;98.78
69359;HTU21D;56520;49.066;8.660;2023-11-19T02:19:57;10.72;98.84
69359;HTU21D;56520;49.066;8.660;2023-11-19T02:22:23;10.71;98.87
69359;HTU21D;56520;49.066;8.660;2023-11-19T02:24:51;10.66;99.04
69359;HTU21D;56520;49.066;8.660;2023-11-19T02:28:12;10.78;98.76
69359;HTU21D;56520;49.066;8.660;2023-11-19T02:30:12;10.77;98.80
69359;HTU21D;56520;49.066;8.660;2023-11-19T02:32:43;10.74;98.87
69359;HTU21D;56520;49.066;8.660;2023-11-19T02:35:08;10.72;98.90
69359;HTU21D;56520;49.066;8.660;2023-11-19T02:37:34;10.74;98.87
69359;HTU21D;56520;49.066;8.660;2023-11-19T02:40:00;10.72;98.96
69359;HTU21D;56520;49.066;8.660;2023-11-19T02:42:29;10.72;98.99
69359;HTU21D;56520;49.066;8.660;2023-11-19T02:44:54;10.73;99.03
69359;HTU21D;56520;49.066;8.660;2023-11-19T02:47:20;10.77;99.01
69359;HTU21D;56520;49.066;8.660;2023-11-19T02:49:46;10.80;98.99
69359;HTU21D;56520;49.066;8.660;2023-11-19T02:52:13;10.81;99.02
69359;HTU21D;56520;49.066;8.660;2023-11-19T02:54:40;10.88;98.74
69359;HTU21D;56520;49.066;8.660;2023-11-19T02:57:06;10.88;98.68
69359;HTU21D;56520;49.066;8.660;2023-11-19T02:59:35;10.79;98.93
69359;HTU21D;56520;49.066;8.660;2023-11-19T03:02:05;10.80;99.05
69359;HTU21D;56520;49.066;8.660;2023-11-19T03:04:33;10.82;99.06
69359;HTU21D;56520;49.066;8.660;2023-11-19T03:06:58;10.87;99.13
69359;HTU21D;56520;49.066;8.660;2023-11-19T03:09:24;10.93;99.05
69359;HTU21D;56520;49.066;8.660;2023-11-19T03:11:50;11.00;98.77
69359;HTU21D;56520;49.066;8.660;2023-11-19T03:14:15;10.97;98.88
69359;HTU21D;56520;49.066;8.660;2023-11-19T03:16:45;10.99;98.76
69359;HTU21D;56520;49.066;8.660;2023-11-19T03:19:11;11.01;98.68
69359;HTU21D;56520;49.066;8.660;2023-11-19T03:21:37;11.09;98.48
69359;HTU21D;56520;49.066;8.660;2023-11-19T03:24:02;11.11;98.35
69359;HTU21D;56520;49.066;8.660;2023-11-19T03:26:28;11.17;98.12
69359;HTU21D;56520;49.066;8.660;2023-11-19T03:28:54;11.18;98.12
69359;HTU21D;56520;49.066;8.660;2023-11-19T03:31:21;11.15;98.13
69359;HTU21D;56520;49.066;8.660;2023-11-19T03:33:46;11.14;98.32
69359;HTU21D;56520;49.066;8.660;2023-11-19T03:36:12;11.09;98.45
69359;HTU21D;56520;49.066;8.660;2023-11-19T03:38:38;11.14;98.51
69359;HTU21D;56520;49.066;8.660;2023-11-19T03:41:13;11.08;98.68
69359;HTU21D;56520;49.066;8.660;2023-11-19T03:43:39;11.03;98.84
69359;HTU21D;56520;49.066;8.660;2023-11-19T03:46:21;10.95;99.10
69359;HTU21D;56520;49.066;8.660;2023-11-19T03:48:47;10.98;99.15
69359;HTU21D;56520;49.066;8.660;2023-11-19T03:51:13;10.99;99.27
69359;HTU21D;56520;49.066;8.660;2023-11-19T03:53:44;10.99;99.51
69359;HTU21D;56520;49.066;8.660;2023-11-19T03:56:11;10.98;99.51
69359;HTU21D;56520;49.066;8.660;2023-11-19T03:58:37;11.13;99.28
69359;HTU21D;56520;49.066;8.660;2023-11-19T04:01:03;11.14;99.20
69359;HTU21D;56520;49.066;8.660;2023-11-19T04:03:29;11.14;99.17
69359;HTU21D;56520;49.066;8.660;2023-11-19T04:05:54;11.29;98.68
69359;HTU21D;56520;49.066;8.660;2023-11-19T04:08:20;11.29;98.48
69359;HTU21D;56520;49.066;8.660;2023-11-19T04:10:45;11.30;98.31
69359;HTU21D;56520;49.066;8.660;2023-11-19T04:13:10;11.29;98.31
69359;HTU21D;56520;49.066;8.660;2023-11-19T04:15:36;11.24;98.42
69359;HTU21D;56520;49.066;8.660;2023-11-19T04:18:01;11.22;98.48
69359;HTU21D;56520;49.066;8.660;2023-11-19T04:20:27;11.25;98.40
69359;HTU21D;56520;49.066;8.660;2023-11-19T04:22:52;11.28;98.23
69359;HTU21D;56520;49.066;8.660;2023-11-19T04:25:19;11.29;98.09
69359;HTU21D;56520;49.066;8.660;2023-11-19T04:27:44;11.27;98.15
69359;HTU21D;56520;49.066;8.660;2023-11-19T04:30:10;11.39;97.80
69359;HTU21D;56520;49.066;8.660;2023-11-19T04:32:37;11.47;97.39
69359;HTU21D;56520;49.066;8.660;2023-11-19T04:35:02;11.44;97.40
69359;HTU21D;56520;49.066;8.660;2023-11-19T04:37:28;11.57;96.81
69359;HTU21D;56520;49.066;8.660;2023-11-19T04:39:54;11.53;96.93
69359;HTU21D;56520;49.066;8.660;2023-11-19T04:42:22;11.53;97.07
69359;HTU21D;56520;49.066;8.660;2023-11-19T04:44:47;11.49;97.20
69359;HTU21D;56520;49.066;8.660;2023-11-19T04:47:13;11.42;97.52
69359;HTU21D;56520;49.066;8.660;2023-11-19T04:49:42;11.55;97.30
69359;HTU21D;56520;49.066;8.660;2023-11-19T04:52:11;11.58;97.21
69359;HTU21D;56520;49.066;8.660;2023-11-19T04:54:43;11.63;97.09
69359;HTU21D;56520;49.066;8.660;2023-11-19T04:57:09;11.58;97.24
69359;HTU21D;56520;49.066;8.660;2023-11-19T04:59:36;11.61;97.20
69359;HTU21D;56520;49.066;8.660;2023-11-19T05:02:02;11.63;97.09
69359;HTU21D;56520;49.066;8.660;2023-11-19T05:04:27;11.67;97.00
69359;HTU21D;56520;49.066;8.660;2023-11-19T05:06:52;11.79;96.55
69359;HTU21D;56520;49.066;8.660;2023-11-19T05:09:18;11.78;96.23
69359;HTU21D;56520;49.066;8.660;2023-11-19T05:11:44;11.74;96.31
69359;HTU21D;56520;49.066;8.660;2023-11-19T05:14:09;11.72;96.29
69359;HTU21D;56520;49.066;8.660;2023-11-19T05:16:34;11.69;96.39
69359;HTU21D;56520;49.066;8.660;2023-11-19T05:19:00;11.73;96.23
69359;HTU21D;56520;49.066;8.660;2023-11-19T05:21:26;11.84;95.65
69359;HTU21D;56520;49.066;8.660;2023-11-19T05:23:51;11.77;95.75
69359;HTU21D;56520;49.066;8.660;2023-11-19T05:26:18;11.74;95.81
69359;HTU21D;56520;49.066;8.660;2023-11-19T05:28:44;11.72;95.81
69359;HTU21D;56520;49.066;8.660;2023-11-19T05:31:09;11.86;95.17
69359;HTU21D;56520;49.066;8.660;2023-11-19T05:33:34;11.83;95.11
69359;HTU21D;56520;49.066;8.660;2023-11-19T05:36:00;11.87;94.81
69359;HTU21D;56520;49.066;8.660;2023-11-19T05:38:28;11.88;94.81
69359;HTU21D;56520;49.066;8.660;2023-11-19T05:40:54;11.90;94.61
69359;HTU21D;56520;49.066;8.660;2023-11-19T05:43:19;11.92;94.53
69359;HTU21D;56520;49.066;8.660;2023-11-19T05:45:45;11.90;94.68
69359;HTU21D;56520;49.066;8.660;2023-11-19T05:48:10;11.85;95.01
69359;HTU21D;56520;49.066;8.660;2023-11-19T05:50:36;11.94;94.65
69359;HTU21D;56520;49.066;8.660;2023-11-19T05:53:01;12.04;94.11
69359;HTU21D;56520;49.066;8.660;2023-11-19T05:55:26;12.04;93.95
69359;HTU21D;56520;49.066;8.660;2023-11-19T05:57:53;12.04;93.89
69359;HTU21D;56520;49.066;8.660;2023-11-19T06:00:18;12.18;93.18
69359;HTU21D;56520;49.066;8.660;2023-11-19T06:02:44;12.19;93.28
69359;HTU21D;56520;49.066;8.660;2023-11-19T06:05:09;12.19;93.49
69359;HTU21D;56520;49.066;8.660;2023-11-19T06:07:35;12.23;93.44
69359;HTU21D;56520;49.066;8.660;2023-11-19T06:10:02;12.21;93.62
69359;HTU21D;56520;49.066;8.660;2023-11-19T06:12:30;12.33;92.90
69359;HTU21D;56520;49.066;8.660;2023-11-19T06:14:57;12.34;92.84
69359;HTU21D;56520;49.066;8.660;2023-11-19T06:17:22;12.34;92.85
69359;HTU21D;56520;49.066;8.660;2023-11-19T06:19:48;12.41;92.40
69359;HTU21D;56520;49.066;8.660;2023-11-19T06:22:13;12.40;92.37
69359;HTU21D;56520;49.066;8.660;2023-11-19T06:24:38;12.35;92.60
69359;HTU21D;56520;49.066;8.660;2023-11-19T06:27:04;12.35;92.68
69359;HTU21D;56520;49.066;8.660;2023-11-19T06:29:29;12.56;91.82
69359;HTU21D;56520;49.066;8.660;2023-11-19T06:31:55;12.61;91.55
69359;HTU21D;56520;49.066;8.660;2023-11-19T06:34:20;12.80;90.53
69359;HTU21D;56520;49.066;8.660;2023-11-19T06:36:45;12.88;90.21
69359;HTU21D;56520;49.066;8.660;2023-11-19T06:39:11;12.74;91.02
69359;HTU21D;56520;49.066;8.660;2023-11-19T06:41:37;12.69;91.51
69359;HTU21D;56520;49.066;8.660;2023-11-19T06:44:06;12.64;91.89
69359;HTU21D;56520;49.066;8.660;2023-11-19T06:46:31;12.67;91.82
69359;HTU21D;56520;49.066;8.660;2023-11-19T06:48:57;12.69;92.06
69359;HTU21D;56520;49.066;8.660;2023-11-19T06:51:22;12.63;92.35
69359;HTU21D;56520;49.066;8.660;2023-11-19T06:53:49;12.61;92.43
69359;HTU21D;56520;49.066;8.660;2023-11-19T06:56:21;12.57;92.66
69359;HTU21D;56520;49.066;8.660;2023-11-19T06:58:47;12.59;92.53
69359;HTU21D;56520;49.066;8.660;2023-11-19T07:01:17;12.56;92.74
69359;HTU21D;56520;49.066;8.660;2023-11-19T07:03:44;12.57;92.66
69359;HTU21D;56520;49.066;8.660;2023-11-19T07:06:10;12.55;92.88
69359;HTU21D;56520;49.066;8.660;2023-11-19T07:08:35;12.52;93.11
69359;HTU21D;56520;49.066;8.660;2023-11-19T07:11:01;12.48;93.23
69359;HTU21D;56520;49.066;8.660;2023-11-19T07:13:27;12.47;93.39
69359;HTU21D;56520;49.066;8.660;2023-11-19T07:15:55;12.44;93.50
69359;HTU21D;56520;49.066;8.660;2023-11-19T07:18:21;12.43;93.64
69359;HTU21D;56520;49.066;8.660;2023-11-19T07:20:47;12.43;93.94
69359;HTU21D;56520;49.066;8.660;2023-11-19T07:23:13;12.42;94.11
69359;HTU21D;56520;49.066;8.660;2023-11-19T07:25:42;12.38;94.20
69359;HTU21D;56520;49.066;8.660;2023-11-19T07:28:08;12.28;94.46
69359;HTU21D;56520;49.066;8.660;2023-11-19T07:30:35;12.19;94.78
69359;HTU21D;56520;49.066;8.660;2023-11-19T07:33:00;12.10;95.21
69359;HTU21D;56520;49.066;8.660;2023-11-19T07:35:29;12.18;95.61
69359;HTU21D;56520;49.066;8.660;2023-11-19T07:37:56;12.13;95.90
69359;HTU21D;56520;49.066;8.660;2023-11-19T07:40:21;12.14;96.07
69359;HTU21D;56520;49.066;8.660;2023-11-19T07:42:47;12.17;96.10
69359;HTU21D;56520;49.066;8.660;2023-11-19T07:45:12;12.19;96.07
69359;HTU21D;56520;49.066;8.660;2023-11-19T07:47:38;12.22;95.94
69359;HTU21D;56520;49.066;8.660;2023-11-19T07:50:04;12.21;95.90
69359;HTU21D;56520;49.066;8.660;2023-11-19T07:52:29;12.36;95.11
69359;HTU21D;56520;49.066;8.660;2023-11-19T07:54:55;12.48;94.50
69359;HTU21D;56520;49.066;8.660;2023-11-19T07:57:20;12.48;94.56
69359;HTU21D;56520;49.066;8.660;2023-11-19T07:59:46;12.57;93.98
69359;HTU21D;56520;49.066;8.660;2023-11-19T08:02:12;12.65;93.43
69359;HTU21D;56520;49.066;8.660;2023-11-19T08:04:37;12.70;93.12
69359;HTU21D;56520;49.066;8.660;2023-11-19T08:07:05;12.78;92.69
69359;HTU21D;56520;49.066;8.660;2023-11-19T08:09:30;12.82;92.49
69359;HTU21D;56520;49.066;8.660;2023-11-19T08:11:56;12.97;91.27
69359;HTU21D;56520;49.066;8.660;2023-11-19T08:14:21;13.03;90.74
69359;HTU21D;56520;49.066;8.660;2023-11-19T08:16:47;13.06;90.63
69359;HTU21D;56520;49.066;8.660;2023-11-19T08:19:12;13.07;90.66
69359;HTU21D;56520;49.066;8.660;2023-11-19T08:21:38;13.15;90.52
69359;HTU21D;56520;49.066;8.660;2023-11-19T08:24:03;13.17;90.81
69359;HTU21D;56520;49.066;8.660;2023-11-19T08:26:29;13.11;91.68
69359;HTU21D;56520;49.066;8.660;2023-11-19T08:28:54;13.02;92.40
69359;HTU21D;56520;49.066;8.660;2023-11-19T08:31:20;12.93;92.84
69359;HTU21D;56520;49.066;8.660;2023-11-19T08:33:45;12.92;92.95
69359;HTU21D;56520;49.066;8.660;2023-11-19T08:36:17;12.97;92.79
69359;HTU21D;56520;49.066;8.660;2023-11-19T08:38:42;13.07;92.08
69359;HTU21D;56520;49.066;8.660;2023-11-19T08:41:07;13.14;91.98
69359;HTU21D;56520;49.066;8.660;2023-11-19T08:43:33;13.31;91.32
69359;HTU21D;56520;49.066;8.660;2023-11-19T08:45:58;13.66;90.25
69359;HTU21D;56520;49.066;8.660;2023-11-19T08:48:24;14.09;87.95
69359;HTU21D;56520;49.066;8.660;2023-11-19T08:50:49;14.37;85.31
69359;HTU21D;56520;49.066;8.660;2023-11-19T08:53:15;14.59;84.58
69359;HTU21D;56520;49.066;8.660;2023-11-19T08:55:40;14.83;84.82
69359;HTU21D;56520;49.066;8.660;2023-11-19T08:58:06;15.00;83.00
69359;HTU21D;56520;49.066;8.660;2023-11-19T09:00:32;15.19;80.98
69359;HTU21D;56520;49.066;8.660;2023-11-19T09:02:57;14.98;81.31
69359;HTU21D;56520;49.066;8.660;2023-11-19T09:05:23;14.69;81.79
69359;HTU21D;56520;49.066;8.660;2023-11-19T09:07:48;14.49;82.29
69359;HTU21D;56520;49.066;8.660;2023-11-19T09:10:15;14.33;82.94
69359;HTU21D;56520;49.066;8.660;2023-11-19T09:12:41;14.22;83.66
69359;HTU21D;56520;49.066;8.660;2023-11-19T09:15:07;14.14;84.31
69359;HTU21D;56520;49.066;8.660;2023-11-19T09:17:32;14.24;84.58
69359;HTU21D;56520;49.066;8.660;2023-11-19T09:19:58;14.43;83.63
69359;HTU21D;56520;49.066;8.660;2023-11-19T09:22:23;14.48;83.89
69359;HTU21D;56520;49.066;8.660;2023-11-19T09:24:48;14.66;83.87
69359;HTU21D;56520;49.066;8.660;2023-11-19T09:27:14;14.75;82.78
69359;HTU21D;56520;49.066;8.660;2023-11-19T09:29:39;14.65;84.31
69359;HTU21D;56520;49.066;8.660;2023-11-19T09:32:05;14.98;83.34
69359;HTU21D;56520;49.066;8.660;2023-11-19T09:34:31;15.26;81.17
69359;HTU21D;56520;49.066;8.660;2023-11-19T09:36:57;15.10;80.59
69359;HTU21D;56520;49.066;8.660;2023-11-19T09:39:22;14.70;82.28
69359;HTU21D;56520;49.066;8.660;2023-11-19T09:41:47;14.42;83.74
69359;HTU21D;56520;49.066;8.660;2023-11-19T09:44:14;14.20;84.87
69359;HTU21D;56520;49.066;8.660;2023-11-19T09:46:43;14.10;86.30
69359;HTU21D;56520;49.066;8.660;2023-11-19T09:49:10;14.37;85.79
69359;HTU21D;56520;49.066;8.660;2023-11-19T09:51:36;14.51;83.90
69359;HTU21D;56520;49.066;8.660;2023-11-19T09:54:02;14.51;82.87
69359;HTU21D;56520;49.066;8.660;2023-11-19T09:56:28;14.23;84.55
69359;HTU21D;56520;49.066;8.660;2023-11-19T09:58:55;14.04;85.40
69359;HTU21D;56520;49.066;8.660;2023-11-19T10:01:20;14.07;85.40
69359;HTU21D;56520;49.066;8.660;2023-11-19T10:03:47;14.09;84.42
69359;HTU21D;56520;49.066;8.660;2023-11-19T10:06:14;14.06;85.38
69359;HTU21D;56520;49.066;8.660;2023-11-19T10:08:41;14.26;84.68
69359;HTU21D;56520;49.066;8.660;2023-11-19T10:11:08;14.30;83.77
69359;HTU21D;56520;49.066;8.660;2023-11-19T10:13:36;14.36;84.57
69359;HTU21D;56520;49.066;8.660;2023-11-19T10:16:14;14.72;82.74
69359;HTU21D;56520;49.066;8.660;2023-11-19T10:18:47;14.72;82.76
69359;HTU21D;56520;49.066;8.660;2023-11-19T10:21:14;14.66;83.35
69359;HTU21D;56520;49.066;8.660;2023-11-19T10:26:19;14.81;82.12
69359;HTU21D;56520;49.066;8.660;2023-11-19T10:28:49;15.02;81.65
69359;HTU21D;56520;49.066;8.660;2023-11-19T10:31:15;15.40;79.16
69359;HTU21D;56520;49.066;8.660;2023-11-19T10:33:42;15.63;79.77
69359;HTU21D;56520;49.066;8.660;2023-11-19T10:36:10;15.99;78.40
69359;HTU21D;56520;49.066;8.660;2023-11-19T10:38:37;16.14;77.04
69359;HTU21D;56520;49.066;8.660;2023-11-19T10:41:03;16.08;76.20
69359;HTU21D;56520;49.066;8.660;2023-11-19T10:43:29;16.00;76.76
69359;HTU21D;56520;49.066;8.660;2023-11-19T10:46:09;15.96;75.71
69359;HTU21D;56520;49.066;8.660;2023-11-19T10:48:35;15.84;77.04
69359;HTU21D;56520;49.066;8.660;2023-11-19T10:51:03;15.90;77.51
69359;HTU21D;56520;49.066;8.660;2023-11-19T10:53:31;16.05;77.02
69359;HTU21D;56520;49.066;8.660;2023-11-19T10:55:59;16.16;75.60
69359;HTU21D;56520;49.066;8.660;2023-11-19T10:58:28;16.31;74.86
69359;HTU21D;56520;49.066;8.660;2023-11-19T11:00:57;16.29;74.36
69359;HTU21D;56520;49.066;8.660;2023-11-19T11:03:31;16.31;74.15
69359;HTU21D;56520;49.066;8.660;2023-11-19T11:05:57;16.43;73.29
69359;HTU21D;56520;49.066;8.660;2023-11-19T11:08:23;16.52;72.61
69359;HTU21D;56520;49.066;8.660;2023-11-19T11:10:55;16.54;70.57
69359;HTU21D;56520;49.066;8.660;2023-11-19T11:13:23;16.42;72.32
69359;HTU21D;56520;49.066;8.660;2023-11-19T11:15:55;16.35;71.40
69359;HTU21D;56520;49.066;8.660;2023-11-19T11:18:23;16.26;73.00
69359;HTU21D;56520;49.066;8.660;2023-11-19T11:20:52;16.05;74.37
69359;HTU21D;56520;49.066;8.660;2023-11-19T11:23:30;15.85;74.59
69359;HTU21D;56520;49.066;8.660;2023-11-19T11:28:46;15.61;76.72
69359;HTU21D;56520;49.066;8.660;2023-11-19T11:34:32;15.07;78.90
69359;HTU21D;56520;49.066;8.660;2023-11-19T11:37:36;14.80;79.96
69359;HTU21D;56520;49.066;8.660;2023-11-19T11:40:03;14.62;80.71
69359;HTU21D;56520;49.066;8.660;2023-11-19T11:42:36;14.60;80.83
69359;HTU21D;56520;49.066;8.660;2023-11-19T11:45:05;14.67;80.41
69359;HTU21D;56520;49.066;8.660;2023-11-19T11:57:53;15.86;77.68
69359;HTU21D;56520;49.066;8.660;2023-11-19T12:00:38;16.24;74.66
69359;HTU21D;56520;49.066;8.660;2023-11-19T12:03:06;16.57;73.99
69359;HTU21D;56520;49.066;8.660;2023-11-19T12:05:32;16.77;72.70
69359;HTU21D;56520;49.066;8.660;2023-11-19T12:10:25;16.63;73.67
69359;HTU21D;56520;49.066;8.660;2023-11-19T12:12:58;16.65;73.32
69359;HTU21D;56520;49.066;8.660;2023-11-19T12:15:24;16.57;73.28
69359;HTU21D;56520;49.066;8.660;2023-11-19T12:17:52;16.71;73.54
69359;HTU21D;56520;49.066;8.660;2023-11-19T12:20:19;16.85;73.85
69359;HTU21D;56520;49.066;8.660;2023-11-19T12:22:47;17.02;72.08
69359;HTU21D;56520;49.066;8.660;2023-11-19T12:25:14;17.02;73.01
69359;HTU21D;56520;49.066;8.660;2023-11-19T12:27:51;17.04;70.03
69359;HTU21D;56520;49.066;8.660;2023-11-19T12:30:24;16.85;71.81
69359;HTU21D;56520;49.066;8.660;2023-11-19T12:32:51;16.77;71.10
69359;HTU21D;56520;49.066;8.660;2023-11-19T12:35:18;16.67;71.03
69359;HTU21D;56520;49.066;8.660;2023-11-19T12:40:24;16.56;71.90
69359;HTU21D;56520;49.066;8.660;2023-11-19T12:42:52;16.60;72.16
69359;HTU21D;56520;49.066;8.660;2023-11-19T12:45:18;16.57;72.31
69359;HTU21D;56520;49.066;8.660;2023-11-19T12:47:46;16.39;72.58
69359;HTU21D;56520;49.066;8.660;2023-11-19T12:50:13;16.06;73.65
69359;HTU21D;56520;49.066;8.660;2023-11-19T12:52:39;15.90;74.24
69359;HTU21D;56520;49.066;8.660;2023-11-19T12:55:06;15.89;74.25
69359;HTU21D;56520;49.066;8.660;2023-11-19T12:57:48;15.89;74.28
69359;HTU21D;56520;49.066;8.660;2023-11-19T13:00:19;15.89;74.54
69359;HTU21D;56520;49.066;8.660;2023-11-19T13:02:55;16.02;74.67
69359;HTU21D;56520;49.066;8.660;2023-11-19T13:05:29;16.56;71.58
69359;HTU21D;56520;49.066;8.660;2023-11-19T13:08:05;17.00;70.27
69359;HTU21D;56520;49.066;8.660;2023-11-19T13:10:32;17.31;68.04
69359;HTU21D;56520;49.066;8.660;2023-11-19T13:13:06;17.28;68.84
69359;HTU21D;56520;49.066;8.660;2023-11-19T13:15:32;16.96;70.62
69359;HTU21D;56520;49.066;8.660;2023-11-19T13:17:58;16.84;70.36
69359;HTU21D;56520;49.066;8.660;2023-11-19T13:20:24;16.66;70.79
69359;HTU21D;56520;49.066;8.660;2023-11-19T13:23:03;16.62;70.12
69359;HTU21D;56520;49.066;8.660;2023-11-19T13:25:29;16.56;70.79
69359;HTU21D;56520;49.066;8.660;2023-11-19T13:27:55;16.42;71.06
69359;HTU21D;56520;49.066;8.660;2023-11-19T13:30:22;16.20;71.97
69359;HTU21D;56520;49.066;8.660;2023-11-19T13:32:48;16.11;71.19
69359;HTU21D;56520;49.066;8.660;2023-11-19T13:35:14;16.26;70.87
69359;HTU21D;56520;49.066;8.660;2023-11-19T13:37:39;16.21;71.42
69359;HTU21D;56520;49.066;8.660;2023-11-19T13:40:08;16.12;72.10
69359;HTU21D;56520;49.066;8.660;2023-11-19T13:42:40;16.14;72.64
69359;HTU21D;56520;49.066;8.660;2023-11-19T13:45:16;16.41;71.42
69359;HTU21D;56520;49.066;8.660;2023-11-19T13:47:45;16.71;70.07
69359;HTU21D;56520;49.066;8.660;2023-11-19T13:50:12;16.80;69.28
69359;HTU21D;56520;49.066;8.660;2023-11-19T13:52:39;17.04;67.17
69359;HTU21D;56520;49.066;8.660;2023-11-19T13:55:06;16.98;64.59
69359;HTU21D;56520;49.066;8.660;2023-11-19T13:57:32;16.73;66.03
69359;HTU21D;56520;49.066;8.660;2023-11-19T14:00:00;16.66;65.96
69359;HTU21D;56520;49.066;8.660;2023-11-19T14:02:25;16.56;64.98
69359;HTU21D;56520;49.066;8.660;2023-11-19T14:04:50;16.41;66.68
69359;HTU21D;56520;49.066;8.660;2023-11-19T14:07:16;16.41;66.41
69359;HTU21D;56520;49.066;8.660;2023-11-19T14:09:42;16.46;64.29
69359;HTU21D;56520;49.066;8.660;2023-11-19T14:12:08;16.33;66.36
69359;HTU21D;56520;49.066;8.660;2023-11-19T14:14:34;16.19;66.77
69359;HTU21D;56520;49.066;8.660;2023-11-19T14:17:01;16.16;66.13
69359;HTU21D;56520;49.066;8.660;2023-11-19T14:19:28;15.92;67.54
69359;HTU21D;56520;49.066;8.660;2023-11-19T14:21:54;15.72;67.35
69359;HTU21D;56520;49.066;8.660;2023-11-19T14:24:19;15.53;67.10
69359;HTU21D;56520;49.066;8.660;2023-11-19T14:26:46;15.34;67.23
69359;HTU21D;56520;49.066;8.660;2023-11-19T14:29:12;15.17;67.07
69359;HTU21D;56520;49.066;8.660;2023-11-19T14:31:38;15.09;67.15
69359;HTU21D;56520;49.066;8.660;2023-11-19T14:34:05;14.98;67.46
69359;HTU21D;56520;49.066;8.660;2023-11-19T14:36:30;14.82;68.39
69359;HTU21D;56520;49.066;8.660;2023-11-19T14:38:55;14.71;68.65
69359;HTU21D;56520;49.066;8.660;2023-11-19T14:41:23;14.68;68.55
69359;HTU21D;56520;49.066;8.660;2023-11-19T14:43:48;14.53;69.65
69359;HTU21D;56520;49.066;8.660;2023-11-19T14:46:13;14.43;70.32
69359;HTU21D;56520;49.066;8.660;2023-11-19T14:48:39;14.37;70.58
69359;HTU21D;56520;49.066;8.660;2023-11-19T14:51:04;14.36;70.64
69359;HTU21D;56520;49.066;8.660;2023-11-19T14:53:30;14.42;70.97
69359;HTU21D;56520;49.066;8.660;2023-11-19T14:55:55;14.45;70.93
69359;HTU21D;56520;49.066;8.660;2023-11-19T14:58:21;14.47;71.03
69359;HTU21D;56520;49.066;8.660;2023-11-19T15:00:47;14.48;71.04
69359;HTU21D;56520;49.066;8.660;2023-11-19T15:03:13;14.52;71.16
69359;HTU21D;56520;49.066;8.660;2023-11-19T15:05:39;14.45;71.22
69359;HTU21D;56520;49.066;8.660;2023-11-19T15:08:04;14.48;71.46
69359;HTU21D;56520;49.066;8.660;2023-11-19T15:10:30;14.48;71.51
69359;HTU21D;56520;49.066;8.660;2023-11-19T15:12:55;14.45;71.71
69359;HTU21D;56520;49.066;8.660;2023-11-19T15:15:20;14.57;71.39
69359;HTU21D;56520;49.066;8.660;2023-11-19T15:17:47;14.57;69.95
69359;HTU21D;56520;49.066;8.660;2023-11-19T15:20:12;14.54;70.97
69359;HTU21D;56520;49.066;8.660;2023-11-19T15:22:40;14.56;69.23
69359;HTU21D;56520;49.066;8.660;2023-11-19T15:25:06;14.69;69.34
69359;HTU21D;56520;49.066;8.660;2023-11-19T15:27:35;14.62;69.26
69359;HTU21D;56520;49.066;8.660;2023-11-19T15:30:01;14.48;70.29
69359;HTU21D;56520;49.066;8.660;2023-11-19T15:32:28;14.44;70.16
69359;HTU21D;56520;49.066;8.660;2023-11-19T15:34:57;14.48;69.39
69359;HTU21D;56520;49.066;8.660;2023-11-19T15:37:22;14.45;69.87
69359;HTU21D;56520;49.066;8.660;2023-11-19T15:39:48;14.36;70.13